createdAt,value
2023-03-26T00:01:46.601Z,8.58
2023-03-26T00:04:14.344Z,8.60
2023-03-26T00:06:42.093Z,8.66
2023-03-26T00:09:12.983Z,8.74
2023-03-26T00:11:40.611Z,8.79
2023-03-26T00:14:09.398Z,8.81
2023-03-26T00:16:37.071Z,8.87
2023-03-26T00:19:06.189Z,8.84
2023-03-26T00:21:33.813Z,8.92
2023-03-26T00:24:04.386Z,8.92
2023-03-26T00:26:33.494Z,8.90
2023-03-26T00:29:03.287Z,8.83
2023-03-26T00:31:31.236Z,8.75
2023-03-26T00:33:59.409Z,8.62
2023-03-26T00:36:28.355Z,8.57
2023-03-26T00:38:56.309Z,8.50
2023-03-26T00:41:26.678Z,8.46
2023-03-26T00:43:56.643Z,8.39
2023-03-26T00:46:24.981Z,8.33
2023-03-26T00:48:52.854Z,8.27
2023-03-26T00:51:21.791Z,8.20
2023-03-26T00:53:51.128Z,8.18
2023-03-26T00:56:20.034Z,8.11
2023-03-26T00:58:49.824Z,8.04
2023-03-26T01:01:20.630Z,8.06
2023-03-26T01:04:04.837Z,8.05
2023-03-26T01:06:36.153Z,8.02
2023-03-26T01:09:13.499Z,7.99
2023-03-26T01:11:41.384Z,8.01
2023-03-26T01:14:12.243Z,7.92
2023-03-26T01:16:42.485Z,7.92
2023-03-26T01:19:16.426Z,7.90
2023-03-26T01:21:43.992Z,7.89
2023-03-26T01:24:13.660Z,7.84
2023-03-26T01:26:55.565Z,7.82
2023-03-26T01:29:33.638Z,7.80
2023-03-26T01:32:10.510Z,7.78
2023-03-26T01:34:52.211Z,7.74
2023-03-26T01:37:27.169Z,7.71
2023-03-26T01:39:58.187Z,7.71
2023-03-26T01:42:34.750Z,7.69
2023-03-26T01:45:09.099Z,7.65
2023-03-26T01:47:38.974Z,7.61
2023-03-26T01:50:07.960Z,7.58
2023-03-26T01:52:35.637Z,7.56
2023-03-26T01:55:05.343Z,7.59
2023-03-26T01:57:42.840Z,7.61
2023-03-26T02:00:22.068Z,7.55
2023-03-26T02:03:03.437Z,7.56
2023-03-26T02:05:35.072Z,7.56
2023-03-26T02:08:11.877Z,7.52
2023-03-26T02:10:44.100Z,7.50
2023-03-26T02:13:12.390Z,7.49
2023-03-26T02:15:41.321Z,7.48
2023-03-26T02:18:10.774Z,7.48
2023-03-26T02:20:38.733Z,7.45
2023-03-26T02:23:06.769Z,7.45
2023-03-26T02:25:36.629Z,7.44
2023-03-26T02:28:06.344Z,7.40
2023-03-26T02:30:34.572Z,7.40
2023-03-26T02:33:02.397Z,7.35
2023-03-26T02:35:45.656Z,7.32
2023-03-26T02:38:14.412Z,7.31
2023-03-26T02:40:42.413Z,7.34
2023-03-26T02:43:11.362Z,7.30
2023-03-26T02:45:39.978Z,7.31
2023-03-26T02:48:07.855Z,7.30
2023-03-26T02:50:50.065Z,7.27
2023-03-26T02:53:41.166Z,7.24
2023-03-26T02:56:31.375Z,7.26
2023-03-26T02:59:27.001Z,7.24
2023-03-26T03:02:18.314Z,7.22
2023-03-26T03:04:46.574Z,7.21
2023-03-26T03:07:15.861Z,7.17
2023-03-26T03:09:43.629Z,7.15
2023-03-26T03:12:46.253Z,7.15
2023-03-26T03:15:15.218Z,7.14
2023-03-26T03:17:42.867Z,7.12
2023-03-26T03:20:12.182Z,7.13
2023-03-26T03:22:41.140Z,7.16
2023-03-26T03:25:14.204Z,7.16
2023-03-26T03:27:42.812Z,7.18
2023-03-26T03:30:15.466Z,7.21
2023-03-26T03:32:45.816Z,7.20
2023-03-26T03:35:15.775Z,7.20
2023-03-26T03:37:48.052Z,7.19
2023-03-26T03:40:15.803Z,7.19
2023-03-26T03:42:44.288Z,7.21
2023-03-26T03:45:15.566Z,7.19
2023-03-26T03:47:53.067Z,7.21
2023-03-26T03:50:28.122Z,7.23
2023-03-26T03:53:10.404Z,7.25
2023-03-26T03:55:38.155Z,7.27
2023-03-26T03:58:06.029Z,7.24
2023-03-26T04:00:34.977Z,7.25
2023-03-26T04:03:32.995Z,7.27
2023-03-26T04:06:02.708Z,7.29
2023-03-26T04:08:30.328Z,7.29
2023-03-26T04:10:58.114Z,7.33
2023-03-26T04:13:44.611Z,7.32
2023-03-26T04:16:36.150Z,7.36
2023-03-26T04:19:04.683Z,7.34
2023-03-26T04:21:32.371Z,7.35
2023-03-26T04:24:01.600Z,7.34
2023-03-26T04:26:52.133Z,7.34
2023-03-26T04:29:27.637Z,7.35
2023-03-26T04:31:59.144Z,7.37
2023-03-26T04:34:30.963Z,7.37
2023-03-26T04:37:26.497Z,7.39
2023-03-26T04:40:10.380Z,7.37
2023-03-26T04:43:04.585Z,7.37
2023-03-26T04:45:53.943Z,7.34
2023-03-26T04:48:25.857Z,7.33
2023-03-26T04:50:53.551Z,7.34
2023-03-26T04:53:24.090Z,7.33
2023-03-26T04:56:24.542Z,7.31
2023-03-26T04:59:26.422Z,7.34
2023-03-26T05:01:56.812Z,7.36
2023-03-26T05:04:29.408Z,7.33
2023-03-26T05:06:59.239Z,7.23
2023-03-26T05:09:35.066Z,7.19
2023-03-26T05:12:11.704Z,7.24
2023-03-26T05:15:03.192Z,7.28
2023-03-26T05:17:55.467Z,7.28
2023-03-26T05:20:31.172Z,7.34
2023-03-26T05:22:58.813Z,7.35
2023-03-26T05:25:31.745Z,7.26
2023-03-26T05:28:01.284Z,7.31
2023-03-26T05:30:36.982Z,7.36
2023-03-26T05:33:05.360Z,7.42
2023-03-26T05:35:43.942Z,7.39
2023-03-26T05:38:11.706Z,7.42
2023-03-26T05:40:39.284Z,7.48
2023-03-26T05:43:08.271Z,7.53
2023-03-26T05:45:42.502Z,7.58
2023-03-26T05:48:20.750Z,7.65
2023-03-26T05:50:50.455Z,7.72
2023-03-26T05:53:19.560Z,7.75
2023-03-26T05:56:06.408Z,7.83
2023-03-26T05:58:52.592Z,7.88
2023-03-26T06:01:44.708Z,7.92
2023-03-26T06:04:13.574Z,7.97
2023-03-26T06:06:48.588Z,8.01
2023-03-26T06:09:16.985Z,8.05
2023-03-26T06:11:44.683Z,8.06
2023-03-26T06:14:12.453Z,8.09
2023-03-26T06:16:51.783Z,8.11
2023-03-26T06:19:21.409Z,8.11
2023-03-26T06:22:19.685Z,8.11
2023-03-26T06:25:09.750Z,8.14
2023-03-26T06:27:57.592Z,8.17
2023-03-26T06:30:51.471Z,8.19
2023-03-26T06:33:51.974Z,8.04
2023-03-26T06:36:19.717Z,8.03
2023-03-26T06:38:51.448Z,8.06
2023-03-26T06:41:19.053Z,8.08
2023-03-26T06:44:02.230Z,8.08
2023-03-26T06:47:04.862Z,8.02
2023-03-26T06:49:55.345Z,8.02
2023-03-26T06:52:46.643Z,8.13
2023-03-26T06:55:37.795Z,8.31
2023-03-26T06:58:24.238Z,8.39
2023-03-26T07:01:10.797Z,8.46
2023-03-26T07:04:00.107Z,8.51
2023-03-26T07:06:50.858Z,8.60
2023-03-26T07:09:37.128Z,8.66
2023-03-26T07:12:24.615Z,8.70
2023-03-26T07:15:11.863Z,8.70
2023-03-26T07:17:58.143Z,8.79
2023-03-26T07:20:30.711Z,8.81
2023-03-26T07:22:58.769Z,8.84
2023-03-26T07:25:52.958Z,8.88
2023-03-26T07:28:40.015Z,8.91
2023-03-26T07:31:27.127Z,8.87
2023-03-26T07:34:30.562Z,8.87
2023-03-26T07:37:24.591Z,8.80
2023-03-26T07:40:25.480Z,8.78
2023-03-26T07:43:20.929Z,8.74
2023-03-26T07:46:14.151Z,8.67
2023-03-26T07:49:01.769Z,8.77
2023-03-26T07:51:37.947Z,8.86
2023-03-26T07:54:32.274Z,9.07
2023-03-26T07:57:29.698Z,9.13
2023-03-26T08:00:20.026Z,9.21
2023-03-26T08:03:22.158Z,9.28
2023-03-26T08:06:06.351Z,9.25
2023-03-26T08:08:57.658Z,9.15
2023-03-26T08:11:48.949Z,9.07
2023-03-26T08:14:38.593Z,9.20
2023-03-26T08:17:10.747Z,9.14
2023-03-26T08:19:50.679Z,9.18
2023-03-26T08:22:27.269Z,9.05
2023-03-26T08:25:05.197Z,8.96
2023-03-26T08:27:40.032Z,8.99
2023-03-26T08:30:14.562Z,9.04
2023-03-26T08:32:42.658Z,9.12
2023-03-26T08:35:14.346Z,9.26
2023-03-26T08:37:45.217Z,9.09
2023-03-26T08:40:14.700Z,9.27
2023-03-26T08:43:09.233Z,9.34
2023-03-26T08:45:57.919Z,9.64
2023-03-26T08:49:10.816Z,9.79
2023-03-26T08:52:22.887Z,9.83
2023-03-26T08:55:10.139Z,10.07
2023-03-26T08:58:15.146Z,10.28
2023-03-26T09:01:22.918Z,10.60
2023-03-26T09:04:08.144Z,10.76
2023-03-26T09:07:06.727Z,10.70
2023-03-26T09:10:09.040Z,10.86
2023-03-26T09:13:05.821Z,11.08
2023-03-26T09:16:20.981Z,11.29
2023-03-26T09:19:20.488Z,11.47
2023-03-26T09:22:23.490Z,11.38
2023-03-26T09:25:16.325Z,11.28
2023-03-26T09:28:07.800Z,11.15
2023-03-26T09:31:04.449Z,11.41
2023-03-26T09:33:57.045Z,11.26
2023-03-26T09:36:52.059Z,10.87
2023-03-26T09:39:36.485Z,11.17
2023-03-26T09:42:11.735Z,11.21
2023-03-26T09:45:10.492Z,11.46
2023-03-26T09:48:18.795Z,11.66
2023-03-26T09:50:57.746Z,11.91
2023-03-26T09:53:41.686Z,12.22
2023-03-26T09:56:14.861Z,12.33
2023-03-26T09:59:17.268Z,12.42
2023-03-26T10:01:51.411Z,12.50
2023-03-26T10:04:59.391Z,12.48
2023-03-26T10:07:47.766Z,12.45
2023-03-26T10:10:26.296Z,12.63
2023-03-26T10:13:11.659Z,12.75
2023-03-26T10:16:04.365Z,12.74
2023-03-26T10:18:43.836Z,13.05
2023-03-26T10:21:24.344Z,13.34
2023-03-26T10:24:07.856Z,13.53
2023-03-26T10:27:09.032Z,13.27
2023-03-26T10:30:14.293Z,13.10
2023-03-26T10:32:53.033Z,13.47
2023-03-26T10:35:31.610Z,13.40
2023-03-26T10:38:14.695Z,13.60
2023-03-26T10:40:48.941Z,13.70
2023-03-26T10:43:37.713Z,13.82
2023-03-26T10:46:30.916Z,13.68
2023-03-26T10:49:32.490Z,14.00
2023-03-26T10:52:03.550Z,14.25
2023-03-26T10:54:42.009Z,13.80
2023-03-26T10:57:20.816Z,13.97
2023-03-26T10:59:48.358Z,13.49
2023-03-26T11:02:29.251Z,13.70
2023-03-26T11:05:19.212Z,13.93
2023-03-26T11:07:53.771Z,13.81
2023-03-26T11:10:41.725Z,13.80
2023-03-26T11:13:19.082Z,14.20
2023-03-26T11:15:52.970Z,14.70
2023-03-26T11:18:25.548Z,14.88
2023-03-26T11:21:19.452Z,14.78
2023-03-26T11:24:05.609Z,14.58
2023-03-26T11:26:42.142Z,14.42
2023-03-26T11:29:32.803Z,14.58
2023-03-26T11:32:06.963Z,14.43
2023-03-26T11:34:38.251Z,14.38
2023-03-26T11:37:14.999Z,14.68
2023-03-26T11:39:48.738Z,14.68
2023-03-26T11:42:18.606Z,14.73
2023-03-26T11:44:52.124Z,14.50
2023-03-26T11:47:24.709Z,14.67
2023-03-26T11:49:54.372Z,14.73
2023-03-26T11:52:23.403Z,14.83
2023-03-26T11:54:51.007Z,14.99
2023-03-26T11:57:23.188Z,14.83
2023-03-26T11:59:57.925Z,15.32
2023-03-26T12:02:32.281Z,15.89
2023-03-26T12:05:15.912Z,16.39
2023-03-26T12:07:51.069Z,16.16
2023-03-26T12:10:24.635Z,16.26
2023-03-26T12:12:56.997Z,16.00
2023-03-26T12:15:26.202Z,15.22
2023-03-26T12:17:56.408Z,15.52
2023-03-26T12:20:35.880Z,16.10
2023-03-26T12:23:08.104Z,16.09
2023-03-26T12:25:38.495Z,16.90
2023-03-26T12:28:18.865Z,17.58
2023-03-26T12:30:54.777Z,18.24
2023-03-26T12:33:27.740Z,18.32
2023-03-26T12:35:58.312Z,17.63
2023-03-26T12:38:33.068Z,18.15
2023-03-26T12:41:06.642Z,17.35
2023-03-26T12:44:50.229Z,17.32
2023-03-26T12:47:58.751Z,17.42
2023-03-26T12:49:18.939Z,17.86
2023-03-26T12:51:51.728Z,18.50
2023-03-26T12:54:45.532Z,18.89
2023-03-26T12:57:22.216Z,18.71
2023-03-26T13:00:10.649Z,18.43
2023-03-26T13:03:00.927Z,18.34
2023-03-26T13:05:41.883Z,18.20
2023-03-26T13:08:24.957Z,18.94
2023-03-26T13:11:01.130Z,19.14
2023-03-26T13:14:04.354Z,18.84
2023-03-26T13:16:41.874Z,19.16
2023-03-26T13:19:14.040Z,19.20
2023-03-26T13:21:57.235Z,19.18
2023-03-26T13:24:35.624Z,18.29
2023-03-26T13:27:17.842Z,19.55
2023-03-26T13:29:56.982Z,19.36
2023-03-26T13:32:34.185Z,18.83
2023-03-26T13:35:14.397Z,17.15
2023-03-26T13:37:50.440Z,16.33
2023-03-26T13:40:31.992Z,16.11
2023-03-26T13:43:28.010Z,15.69
2023-03-26T13:46:02.596Z,15.86
2023-03-26T13:48:34.364Z,15.67
2023-03-26T13:51:09.621Z,15.18
2023-03-26T13:53:44.389Z,15.00
2023-03-26T13:56:15.585Z,14.77
2023-03-26T13:58:51.158Z,14.29
2023-03-26T14:01:21.653Z,13.97
2023-03-26T14:03:56.968Z,13.59
2023-03-26T14:06:36.445Z,13.24
2023-03-26T14:09:08.375Z,12.85
2023-03-26T14:11:47.633Z,12.84
2023-03-26T14:14:20.341Z,12.63
2023-03-26T14:16:51.681Z,12.17
2023-03-26T14:19:42.865Z,11.72
2023-03-26T14:22:20.209Z,11.31
2023-03-26T14:25:00.961Z,10.67
2023-03-26T14:27:44.062Z,10.17
2023-03-26T14:30:37.149Z,9.82
2023-03-26T14:33:27.314Z,9.54
2023-03-26T14:36:02.489Z,9.62
2023-03-26T14:38:57.517Z,9.82
2023-03-26T14:41:26.188Z,9.63
2023-03-26T14:44:18.112Z,9.29
2023-03-26T14:46:59.727Z,9.06
2023-03-26T14:49:46.064Z,8.93
2023-03-26T14:52:22.222Z,8.88
2023-03-26T14:54:54.830Z,9.13
2023-03-26T14:58:02.161Z,9.44
2023-03-26T15:00:55.125Z,9.44
2023-03-26T15:04:21.935Z,9.43
2023-03-26T15:07:41.186Z,9.63
2023-03-26T15:10:16.724Z,9.67
2023-03-26T15:12:59.319Z,9.67
2023-03-26T15:16:28.118Z,9.57
2023-03-26T15:19:34.356Z,9.61
2023-03-26T15:22:23.446Z,9.73
2023-03-26T15:25:15.182Z,9.68
2023-03-26T15:28:31.725Z,9.61
2023-03-26T15:31:13.840Z,9.66
2023-03-26T15:33:59.785Z,9.55
2023-03-26T15:36:56.429Z,9.68
2023-03-26T15:39:59.670Z,9.55
2023-03-26T15:42:38.295Z,9.36
2023-03-26T15:45:32.651Z,9.36
2023-03-26T15:48:13.290Z,9.45
2023-03-26T15:50:52.200Z,9.40
2023-03-26T15:53:30.856Z,9.37
2023-03-26T15:56:14.864Z,9.45
2023-03-26T15:58:51.258Z,9.23
2023-03-26T16:01:31.529Z,9.44
2023-03-26T16:04:14.687Z,9.40
2023-03-26T16:06:52.079Z,9.41
2023-03-26T16:09:38.877Z,9.38
2023-03-26T16:12:29.867Z,9.36
2023-03-26T16:15:26.030Z,9.67
2023-03-26T16:18:29.726Z,9.64
2023-03-26T16:21:05.994Z,9.59
2023-03-26T16:23:53.650Z,9.57
2023-03-26T16:26:26.519Z,9.37
2023-03-26T16:29:16.306Z,9.49
2023-03-26T16:32:04.923Z,9.40
2023-03-26T16:34:41.950Z,9.44
2023-03-26T16:37:36.107Z,9.36
2023-03-26T16:40:33.073Z,9.30
2023-03-26T16:43:31.554Z,9.35
2023-03-26T16:46:07.498Z,9.30
2023-03-26T16:48:41.479Z,9.29
2023-03-26T16:51:18.544Z,9.25
2023-03-26T16:53:54.526Z,9.22
2023-03-26T16:56:34.422Z,9.28
2023-03-26T16:59:09.351Z,9.30
2023-03-26T17:01:43.018Z,9.26
2023-03-26T17:04:17.310Z,9.31
2023-03-26T17:07:03.268Z,9.17
2023-03-26T17:09:42.691Z,9.14
2023-03-26T17:12:19.565Z,9.29
2023-03-26T17:15:01.250Z,9.23
2023-03-26T17:17:45.019Z,9.09
2023-03-26T17:20:25.278Z,9.20
2023-03-26T17:23:03.094Z,9.20
2023-03-26T17:25:37.045Z,9.16
2023-03-26T17:28:32.600Z,9.18
2023-03-26T17:31:07.621Z,9.15
2023-03-26T17:33:38.491Z,9.18
2023-03-26T17:36:32.261Z,9.01
2023-03-26T17:39:21.205Z,8.97
2023-03-26T17:41:55.587Z,8.91
2023-03-26T17:44:38.087Z,8.96
2023-03-26T17:47:18.549Z,8.98
2023-03-26T17:49:48.408Z,9.00
2023-03-26T17:52:21.739Z,9.06
2023-03-26T17:54:51.237Z,8.91
2023-03-26T17:57:24.336Z,8.96
2023-03-26T17:59:57.197Z,8.91
2023-03-26T18:02:41.353Z,8.79
2023-03-26T18:05:12.239Z,8.83
2023-03-26T18:08:14.067Z,8.72
2023-03-26T18:10:58.989Z,8.59
2023-03-26T18:13:50.290Z,8.65
2023-03-26T18:16:20.791Z,8.49
2023-03-26T18:18:53.305Z,8.49
2023-03-26T18:21:25.013Z,8.53
2023-03-26T18:23:53.345Z,8.45
2023-03-26T18:26:34.038Z,8.45
2023-03-26T18:29:13.682Z,8.46
2023-03-26T18:31:42.894Z,8.34
2023-03-26T18:34:18.643Z,8.35
2023-03-26T18:36:46.581Z,8.42
2023-03-26T18:39:14.397Z,8.36
2023-03-26T18:41:43.461Z,8.41
2023-03-26T18:44:16.662Z,8.40
2023-03-26T18:46:44.851Z,8.38
2023-03-26T18:49:16.630Z,8.44
2023-03-26T18:51:56.249Z,8.40
2023-03-26T18:54:25.912Z,8.35
2023-03-26T18:56:53.498Z,8.35
2023-03-26T18:59:28.014Z,8.33
2023-03-26T19:01:58.276Z,8.28
2023-03-26T19:04:30.892Z,8.19
2023-03-26T19:06:59.007Z,8.21
2023-03-26T19:09:32.238Z,8.18
2023-03-26T19:12:06.997Z,8.18
2023-03-26T19:14:36.957Z,8.09
2023-03-26T19:17:07.734Z,8.09
2023-03-26T19:19:38.537Z,8.05
2023-03-26T19:22:07.175Z,8.07
2023-03-26T19:24:35.330Z,8.03
2023-03-26T19:27:03.806Z,8.04
2023-03-26T19:29:35.564Z,8.08
2023-03-26T19:32:04.974Z,8.07
2023-03-26T19:34:34.723Z,8.14
2023-03-26T19:37:16.842Z,8.16
2023-03-26T19:39:47.138Z,8.16
2023-03-26T19:42:16.950Z,8.10
2023-03-26T19:44:45.573Z,8.10
2023-03-26T19:47:18.593Z,8.13
2023-03-26T19:49:53.830Z,8.09
2023-03-26T19:52:25.802Z,8.04
2023-03-26T19:54:59.321Z,8.06
2023-03-26T19:57:29.266Z,8.08
2023-03-26T19:59:57.321Z,8.14
2023-03-26T20:02:25.196Z,8.13
2023-03-26T20:04:53.154Z,8.22
2023-03-26T20:07:35.306Z,8.21
2023-03-26T20:10:05.231Z,8.23
2023-03-26T20:12:32.746Z,8.27
2023-03-26T20:15:01.530Z,8.35
2023-03-26T20:17:31.522Z,8.42
2023-03-26T20:20:02.393Z,8.48
2023-03-26T20:22:31.439Z,8.53
2023-03-26T20:24:59.127Z,8.62
2023-03-26T20:27:27.151Z,8.67
2023-03-26T20:29:55.818Z,8.75
2023-03-26T20:32:27.036Z,8.74
2023-03-26T20:34:54.958Z,8.80
2023-03-26T20:37:23.156Z,8.81
2023-03-26T20:39:52.073Z,8.72
2023-03-26T20:42:19.580Z,8.76
2023-03-26T20:44:47.337Z,8.78
2023-03-26T20:47:14.976Z,8.68
2023-03-26T20:49:43.074Z,8.63
2023-03-26T20:52:14.033Z,8.56
2023-03-26T20:54:41.758Z,8.50
2023-03-26T20:57:13.308Z,8.49
2023-03-26T20:59:41.886Z,8.50
2023-03-26T21:02:11.575Z,8.53
2023-03-26T21:04:39.707Z,8.52
2023-03-26T21:07:17.844Z,8.46
2023-03-26T21:09:47.472Z,8.41
2023-03-26T21:12:26.076Z,8.31
2023-03-26T21:14:55.934Z,8.33
2023-03-26T21:17:24.629Z,8.21
2023-03-26T21:19:52.366Z,8.22
2023-03-26T21:22:33.763Z,8.20
2023-03-26T21:25:17.010Z,8.19
2023-03-26T21:27:56.083Z,8.14
2023-03-26T21:30:24.073Z,8.09
2023-03-26T21:32:52.219Z,8.11
2023-03-26T21:35:20.934Z,8.06
2023-03-26T21:37:49.099Z,8.02
2023-03-26T21:40:18.660Z,7.99
2023-03-26T21:42:50.053Z,8.03
2023-03-26T21:45:19.320Z,7.90
2023-03-26T21:47:47.395Z,7.81
2023-03-26T21:50:18.057Z,7.77
2023-03-26T21:52:49.095Z,7.72
2023-03-26T21:55:20.069Z,7.69
2023-03-26T21:58:16.224Z,7.72
2023-03-26T22:00:57.999Z,7.71
2023-03-26T22:03:30.827Z,7.72
2023-03-26T22:06:04.204Z,7.71
2023-03-26T22:08:33.036Z,7.61
2023-03-26T22:11:00.621Z,7.61
2023-03-26T22:13:30.941Z,7.56
2023-03-26T22:15:58.738Z,7.61
2023-03-26T22:18:30.064Z,7.54
2023-03-26T22:20:59.029Z,7.63
2023-03-26T22:23:26.827Z,7.56
2023-03-26T22:25:54.587Z,7.62
2023-03-26T22:28:22.456Z,7.58
2023-03-26T22:30:52.093Z,7.44
2023-03-26T22:33:20.056Z,7.48
2023-03-26T22:35:47.728Z,7.52
2023-03-26T22:38:16.998Z,7.46
2023-03-26T22:40:44.652Z,7.51
2023-03-26T22:43:12.324Z,7.49
2023-03-26T22:45:41.034Z,7.52
2023-03-26T22:48:10.787Z,7.45
2023-03-26T22:50:38.339Z,7.42
2023-03-26T22:53:06.316Z,7.40
2023-03-26T22:55:34.112Z,7.32
2023-03-26T22:58:01.728Z,7.28
2023-03-26T23:00:29.310Z,7.35
2023-03-26T23:03:00.032Z,7.39
2023-03-26T23:05:29.498Z,7.31
2023-03-26T23:07:57.112Z,7.36
2023-03-26T23:10:24.925Z,7.32
2023-03-26T23:12:52.907Z,7.32
2023-03-26T23:15:20.549Z,7.28
2023-03-26T23:17:54.121Z,7.30
2023-03-26T23:20:22.625Z,7.30
2023-03-26T23:22:52.325Z,7.30
2023-03-26T23:25:20.085Z,7.32
2023-03-26T23:27:48.317Z,7.31
2023-03-26T23:30:16.661Z,7.31
2023-03-26T23:32:44.258Z,7.26
2023-03-26T23:35:12.083Z,7.21
2023-03-26T23:37:42.139Z,7.16
2023-03-26T23:40:13.761Z,7.15
2023-03-26T23:42:41.662Z,7.12
2023-03-26T23:45:09.851Z,7.11
2023-03-26T23:47:42.744Z,7.08
2023-03-26T23:50:11.665Z,7.12
2023-03-26T23:52:39.386Z,7.07
2023-03-26T23:55:07.990Z,7.09
2023-03-26T23:57:37.707Z,7.10
